TFM - Tactical Decision Aid (Experimental) INFO Settings

ID: Runway Winds: CIG/VIS Threshold: METAR Board: Map:

KDFW - Dallas/Fort Worth Intl

Updated at: 0608 UTC 30 May 2015
Latest TAF at: 0559 UTC 30 May 2015

TAF Board

Time0553Z30/07Z30/08Z30/09Z30/10Z30/11Z30/12Z30/13Z30/14Z30/15Z30/16Z30/17Z30/18Z30/19Z
TypeOBSPRVL
  [TEMP]  
PRVL
  [TEMP]  
PRVLPRVLPRVLPRVLPRVLPRVLPRVLPRVLPRVLPRVLPRVL
VIS10>6
  [4]  
>6
  [4]  
333333>6>6>6>6>6
CIG250200
  [35]  
200
  [35]  
1515151515152525505050
CoverBKNBKN
  [BKN]  
BKN
  [BKN]  
OVCOVCOVCOVCOVCOVCBKNBKNBKNBKNBKN
FltCatVFRVFR
  [MVFR]  
VFR
  [MVFR]  
MVFRMVFRMVFRMVFRMVFRMVFRMVFRMVFRVFRVFRVFR
WX--VCTS
  [TSRA]  
VCTS
  [TSRA]  
-TSRA-TSRA-TSRA-TSRA-TSRA-TSRA-RA-RA------
WDir110100
[100]
100
[100]
VRBVRBVRBVRBVRBVRB330330360360360
WSpd35
  [5]  
5
  [5]  
44444488101010
WGst----
  [--]  
--
  [--]  
----------------------
TAF
KDFW 300559Z 3006/3112 10005KT P6SM VCTS SCT050CB BKN200
  TEMPO 3007/3009 4SM TSRA BKN035CB
  FM300900 VRB04KT 3SM -TSRA OVC015CB
  FM301500 33008KT P6SM -RA BKN025
  FM301700 36010KT P6SM BKN050
  FM310200 01008KT P6SM SCT050 BKN100


METAR
KDFW 300553Z 11003KT 10SM FEW050 SCT080 BKN250 21/19 A2998 RMK AO2 SLP144 T02110189 10250 20211 402500183 51007
KDFW 300453Z 00000KT 10SM FEW049 BKN060 22/19 A2998 RMK AO2 SLP144 T02220194

TAF/METAR Board Legend

Potential Impact
  None Marginal Slight Moderate High
Visibility (sm) >5 3≤X≤5 1≤X<3 0.5≤X<1 <0.5
Ceiling (100 ft) >30 10≤X≤30 4≤X<10 2≤X<4 <2
Wind Speed (kt) <10 10≤X<20 20≤X<30 ≥30
Wind Gust (kt) <15 15≤X<25 25≤X<35 ≥35
Weather No Wx Reported VCTS -TS,-FZRA TS,FZRA +TS,+FZRA